Knights Ferry, California
Current Conditions -  °F | °C
As of 9:53 AM on Thursday 23 Oct 2014 (Local Time) from KMOD Reporting Station
Clear Clear  
Wind Chill: 65°   Ceiling: Unl
Heat Index: 65°   Visibility: 10mi
Dew Point: 53°   Wind: 6mph
Humidity: 65%   Direction: 310°NW
Pressure: 30.06"   Gusts: NA
Location:  37.7848°N, 120.772°W
Report Text: KMOD 231653Z 31005KT 10SM CLR 18/12 A3006 RMK AO2 SLP181 T01830117
Loading
Personal Weather Stations






























Interactive Weather Map
Tropical Storm Tracking
New forecast layout! Learn more

10-Day Weather Forecast

Advertisements
Track Severe Weather on mobile